sensor_id;sensor_type;location;lat;lon;timestamp;pressure;altitude;pressure_sealevel;temperature;humidity
45872;BME280;32333;55.844;-3.210;2022-10-28T00:01:47;98697.50;;;12.37;100.00
45872;BME280;32333;55.844;-3.210;2022-10-28T00:04:14;98692.39;;;12.74;100.00
45872;BME280;32333;55.844;-3.210;2022-10-28T00:06:41;98699.54;;;12.68;100.00
45872;BME280;32333;55.844;-3.210;2022-10-28T00:09:10;98694.74;;;12.42;100.00
45872;BME280;32333;55.844;-3.210;2022-10-28T00:11:37;98693.59;;;12.56;100.00
45872;BME280;32333;55.844;-3.210;2022-10-28T00:14:35;98709.51;;;11.70;100.00
45872;BME280;32333;55.844;-3.210;2022-10-28T00:17:03;98713.55;;;11.67;100.00
45872;BME280;32333;55.844;-3.210;2022-10-28T00:19:30;98708.29;;;12.04;100.00
45872;BME280;32333;55.844;-3.210;2022-10-28T00:21:58;98699.25;;;12.21;100.00
45872;BME280;32333;55.844;-3.210;2022-10-28T00:24:25;98695.28;;;12.03;100.00
45872;BME280;32333;55.844;-3.210;2022-10-28T00:26:53;98696.75;;;11.99;100.00
45872;BME280;32333;55.844;-3.210;2022-10-28T00:29:21;98697.57;;;11.37;100.00
45872;BME280;32333;55.844;-3.210;2022-10-28T00:31:48;98679.74;;;12.24;100.00
45872;BME280;32333;55.844;-3.210;2022-10-28T00:34:17;98678.66;;;12.27;100.00
45872;BME280;32333;55.844;-3.210;2022-10-28T00:36:46;98678.59;;;12.02;100.00
45872;BME280;32333;55.844;-3.210;2022-10-28T00:39:16;98670.51;;;11.80;100.00
45872;BME280;32333;55.844;-3.210;2022-10-28T00:41:46;98676.01;;;12.40;100.00
45872;BME280;32333;55.844;-3.210;2022-10-28T00:44:48;98675.91;;;11.82;100.00
45872;BME280;32333;55.844;-3.210;2022-10-28T00:47:28;98663.34;;;11.48;100.00
45872;BME280;32333;55.844;-3.210;2022-10-28T00:49:59;98664.18;;;11.28;100.00
45872;BME280;32333;55.844;-3.210;2022-10-28T00:52:30;98665.64;;;12.00;100.00
45872;BME280;32333;55.844;-3.210;2022-10-28T00:55:00;98675.10;;;11.45;100.00
45872;BME280;32333;55.844;-3.210;2022-10-28T00:57:33;98680.37;;;11.53;100.00
45872;BME280;32333;55.844;-3.210;2022-10-28T01:00:06;98675.19;;;11.39;100.00
45872;BME280;32333;55.844;-3.210;2022-10-28T01:02:40;98667.38;;;11.93;100.00
45872;BME280;32333;55.844;-3.210;2022-10-28T01:05:11;98661.32;;;11.83;100.00
45872;BME280;32333;55.844;-3.210;2022-10-28T01:07:39;98670.58;;;11.60;100.00
45872;BME280;32333;55.844;-3.210;2022-10-28T01:10:08;98658.53;;;11.83;100.00
45872;BME280;32333;55.844;-3.210;2022-10-28T01:14:46;98655.10;;;11.86;100.00
45872;BME280;32333;55.844;-3.210;2022-10-28T01:17:29;98656.99;;;12.20;100.00
45872;BME280;32333;55.844;-3.210;2022-10-28T01:20:20;98642.15;;;12.48;100.00
45872;BME280;32333;55.844;-3.210;2022-10-28T01:22:56;98642.80;;;12.08;100.00
45872;BME280;32333;55.844;-3.210;2022-10-28T01:25:48;98638.79;;;12.24;100.00
45872;BME280;32333;55.844;-3.210;2022-10-28T01:28:32;98634.65;;;12.44;100.00
45872;BME280;32333;55.844;-3.210;2022-10-28T01:31:16;98621.59;;;12.78;100.00
45872;BME280;32333;55.844;-3.210;2022-10-28T01:33:51;98631.79;;;12.08;100.00
45872;BME280;32333;55.844;-3.210;2022-10-28T01:36:29;98629.38;;;11.83;100.00
45872;BME280;32333;55.844;-3.210;2022-10-28T01:39:10;98628.20;;;12.10;100.00
45872;BME280;32333;55.844;-3.210;2022-10-28T01:41:47;98622.68;;;12.28;100.00
45872;BME280;32333;55.844;-3.210;2022-10-28T01:44:42;98629.08;;;12.55;100.00
45872;BME280;32333;55.844;-3.210;2022-10-28T01:47:16;98627.94;;;12.39;100.00
45872;BME280;32333;55.844;-3.210;2022-10-28T01:49:50;98621.23;;;13.02;100.00
45872;BME280;32333;55.844;-3.210;2022-10-28T01:52:21;98629.70;;;12.33;100.00
45872;BME280;32333;55.844;-3.210;2022-10-28T01:55:05;98623.09;;;13.48;100.00
45872;BME280;32333;55.844;-3.210;2022-10-28T01:57:35;98631.03;;;13.00;100.00
45872;BME280;32333;55.844;-3.210;2022-10-28T02:00:06;98634.27;;;12.36;100.00
45872;BME280;32333;55.844;-3.210;2022-10-28T02:02:36;98624.46;;;13.40;100.00
45872;BME280;32333;55.844;-3.210;2022-10-28T02:05:32;98630.88;;;12.58;100.00
45872;BME280;32333;55.844;-3.210;2022-10-28T02:08:11;98626.07;;;13.12;100.00
45872;BME280;32333;55.844;-3.210;2022-10-28T02:10:53;98628.52;;;12.98;100.00
45872;BME280;32333;55.844;-3.210;2022-10-28T02:14:47;98622.76;;;12.82;100.00
45872;BME280;32333;55.844;-3.210;2022-10-28T02:17:28;98617.68;;;13.15;100.00
45872;BME280;32333;55.844;-3.210;2022-10-28T02:20:02;98613.53;;;13.62;100.00
45872;BME280;32333;55.844;-3.210;2022-10-28T02:22:40;98611.30;;;12.96;100.00
45872;BME280;32333;55.844;-3.210;2022-10-28T02:25:16;98606.28;;;13.84;100.00
45872;BME280;32333;55.844;-3.210;2022-10-28T02:27:53;98599.87;;;13.59;100.00
45872;BME280;32333;55.844;-3.210;2022-10-28T02:30:24;98593.73;;;13.40;100.00
45872;BME280;32333;55.844;-3.210;2022-10-28T02:32:57;98584.79;;;14.54;100.00
45872;BME280;32333;55.844;-3.210;2022-10-28T02:35:30;98567.10;;;15.98;100.00
45872;BME280;32333;55.844;-3.210;2022-10-28T02:38:01;98569.05;;;14.71;100.00
45872;BME280;32333;55.844;-3.210;2022-10-28T02:40:30;98568.71;;;15.65;100.00
45872;BME280;32333;55.844;-3.210;2022-10-28T02:44:39;98546.42;;;15.53;100.00
45872;BME280;32333;55.844;-3.210;2022-10-28T02:47:13;98554.63;;;15.93;100.00
45872;BME280;32333;55.844;-3.210;2022-10-28T02:49:46;98554.43;;;15.82;100.00
45872;BME280;32333;55.844;-3.210;2022-10-28T02:52:16;98564.08;;;16.18;100.00
45872;BME280;32333;55.844;-3.210;2022-10-28T02:54:51;98563.10;;;15.87;100.00
45872;BME280;32333;55.844;-3.210;2022-10-28T02:57:22;98559.37;;;15.65;100.00
45872;BME280;32333;55.844;-3.210;2022-10-28T02:59:52;98555.56;;;16.23;100.00
45872;BME280;32333;55.844;-3.210;2022-10-28T03:02:20;98549.72;;;15.85;100.00
45872;BME280;32333;55.844;-3.210;2022-10-28T03:04:49;98550.86;;;16.26;100.00
45872;BME280;32333;55.844;-3.210;2022-10-28T03:07:17;98554.49;;;15.94;100.00
45872;BME280;32333;55.844;-3.210;2022-10-28T03:09:45;98547.98;;;15.36;100.00
45872;BME280;32333;55.844;-3.210;2022-10-28T03:14:36;98539.94;;;15.09;100.00
45872;BME280;32333;55.844;-3.210;2022-10-28T03:17:04;98526.85;;;14.79;100.00
45872;BME280;32333;55.844;-3.210;2022-10-28T03:19:31;98518.92;;;15.04;100.00
45872;BME280;32333;55.844;-3.210;2022-10-28T03:21:59;98505.56;;;15.23;100.00
45872;BME280;32333;55.844;-3.210;2022-10-28T03:24:26;98493.94;;;14.95;100.00
45872;BME280;32333;55.844;-3.210;2022-10-28T03:26:53;98493.51;;;14.19;100.00
45872;BME280;32333;55.844;-3.210;2022-10-28T03:29:22;98484.44;;;13.53;100.00
45872;BME280;32333;55.844;-3.210;2022-10-28T03:31:49;98473.34;;;13.72;100.00
45872;BME280;32333;55.844;-3.210;2022-10-28T03:34:16;98463.05;;;14.17;100.00
45872;BME280;32333;55.844;-3.210;2022-10-28T03:36:43;98456.53;;;13.12;100.00
45872;BME280;32333;55.844;-3.210;2022-10-28T03:39:11;98451.04;;;12.75;100.00
45872;BME280;32333;55.844;-3.210;2022-10-28T03:41:41;98439.58;;;12.78;100.00
45872;BME280;32333;55.844;-3.210;2022-10-28T03:44:35;98441.00;;;12.47;100.00
45872;BME280;32333;55.844;-3.210;2022-10-28T03:47:02;98437.31;;;12.63;100.00
45872;BME280;32333;55.844;-3.210;2022-10-28T03:49:29;98440.31;;;12.17;100.00
45872;BME280;32333;55.844;-3.210;2022-10-28T03:51:58;98438.97;;;12.61;100.00
45872;BME280;32333;55.844;-3.210;2022-10-28T03:54:25;98436.91;;;12.32;100.00
45872;BME280;32333;55.844;-3.210;2022-10-28T03:56:52;98430.07;;;12.46;100.00
45872;BME280;32333;55.844;-3.210;2022-10-28T03:59:19;98431.16;;;12.61;100.00
45872;BME280;32333;55.844;-3.210;2022-10-28T04:01:46;98424.03;;;12.88;100.00
45872;BME280;32333;55.844;-3.210;2022-10-28T04:04:14;98420.15;;;12.89;100.00
45872;BME280;32333;55.844;-3.210;2022-10-28T04:06:41;98406.80;;;12.73;100.00
45872;BME280;32333;55.844;-3.210;2022-10-28T04:09:09;98392.48;;;13.29;100.00
45872;BME280;32333;55.844;-3.210;2022-10-28T04:11:36;98386.95;;;13.43;100.00
45872;BME280;32333;55.844;-3.210;2022-10-28T04:14:35;98391.07;;;13.80;100.00
45872;BME280;32333;55.844;-3.210;2022-10-28T04:17:02;98383.66;;;13.41;100.00
45872;BME280;32333;55.844;-3.210;2022-10-28T04:19:29;98383.93;;;14.05;100.00
45872;BME280;32333;55.844;-3.210;2022-10-28T04:21:58;98383.42;;;15.03;100.00
45872;BME280;32333;55.844;-3.210;2022-10-28T04:24:25;98374.06;;;15.52;100.00
45872;BME280;32333;55.844;-3.210;2022-10-28T04:26:52;98387.38;;;14.80;100.00
45872;BME280;32333;55.844;-3.210;2022-10-28T04:29:19;98376.60;;;13.86;100.00
45872;BME280;32333;55.844;-3.210;2022-10-28T04:31:46;98379.75;;;13.70;100.00
45872;BME280;32333;55.844;-3.210;2022-10-28T04:34:14;98377.81;;;14.49;100.00
45872;BME280;32333;55.844;-3.210;2022-10-28T04:36:41;98374.73;;;14.04;100.00
45872;BME280;32333;55.844;-3.210;2022-10-28T04:39:09;98364.95;;;13.41;100.00
45872;BME280;32333;55.844;-3.210;2022-10-28T04:41:36;98367.34;;;14.19;100.00
45872;BME280;32333;55.844;-3.210;2022-10-28T04:44:35;98363.56;;;14.22;100.00
45872;BME280;32333;55.844;-3.210;2022-10-28T04:47:03;98348.91;;;14.31;100.00
45872;BME280;32333;55.844;-3.210;2022-10-28T04:49:31;98351.00;;;14.17;100.00
45872;BME280;32333;55.844;-3.210;2022-10-28T04:51:59;98350.59;;;14.58;100.00
45872;BME280;32333;55.844;-3.210;2022-10-28T04:54:26;98340.25;;;13.61;100.00
45872;BME280;32333;55.844;-3.210;2022-10-28T04:56:54;98347.09;;;12.66;100.00
45872;BME280;32333;55.844;-3.210;2022-10-28T04:59:22;98344.97;;;13.93;100.00
45872;BME280;32333;55.844;-3.210;2022-10-28T05:01:49;98332.15;;;13.65;100.00
45872;BME280;32333;55.844;-3.210;2022-10-28T05:04:17;98336.19;;;13.52;100.00
45872;BME280;32333;55.844;-3.210;2022-10-28T05:06:44;98323.75;;;13.17;100.00
45872;BME280;32333;55.844;-3.210;2022-10-28T05:09:12;98312.65;;;13.98;100.00
45872;BME280;32333;55.844;-3.210;2022-10-28T05:11:40;98307.92;;;13.50;100.00
45872;BME280;32333;55.844;-3.210;2022-10-28T05:14:36;98296.90;;;13.92;100.00
45872;BME280;32333;55.844;-3.210;2022-10-28T05:17:03;98307.77;;;13.69;100.00
45872;BME280;32333;55.844;-3.210;2022-10-28T05:19:30;98306.11;;;13.83;100.00
45872;BME280;32333;55.844;-3.210;2022-10-28T05:21:58;98285.59;;;12.15;100.00
45872;BME280;32333;55.844;-3.210;2022-10-28T05:24:25;98273.70;;;12.35;100.00
45872;BME280;32333;55.844;-3.210;2022-10-28T05:26:52;98252.76;;;11.99;100.00
45872;BME280;32333;55.844;-3.210;2022-10-28T05:29:20;98260.40;;;11.51;100.00
45872;BME280;32333;55.844;-3.210;2022-10-28T05:31:47;98249.18;;;13.10;100.00
45872;BME280;32333;55.844;-3.210;2022-10-28T05:34:16;98248.68;;;13.06;100.00
45872;BME280;32333;55.844;-3.210;2022-10-28T05:36:44;98250.34;;;13.01;100.00
45872;BME280;32333;55.844;-3.210;2022-10-28T05:39:11;98253.45;;;13.63;100.00
45872;BME280;32333;55.844;-3.210;2022-10-28T05:41:38;98260.78;;;13.02;100.00
45872;BME280;32333;55.844;-3.210;2022-10-28T05:44:35;98267.69;;;11.72;100.00
45872;BME280;32333;55.844;-3.210;2022-10-28T05:47:03;98275.15;;;12.05;100.00
45872;BME280;32333;55.844;-3.210;2022-10-28T05:49:30;98263.08;;;11.63;100.00
45872;BME280;32333;55.844;-3.210;2022-10-28T05:51:58;98264.05;;;10.82;100.00
45872;BME280;32333;55.844;-3.210;2022-10-28T05:54:26;98249.54;;;11.69;100.00
45872;BME280;32333;55.844;-3.210;2022-10-28T05:56:53;98236.43;;;11.21;100.00
45872;BME280;32333;55.844;-3.210;2022-10-28T05:59:21;98234.21;;;11.39;100.00
45872;BME280;32333;55.844;-3.210;2022-10-28T06:01:48;98228.23;;;11.71;100.00
45872;BME280;32333;55.844;-3.210;2022-10-28T06:04:15;98204.78;;;11.50;100.00
45872;BME280;32333;55.844;-3.210;2022-10-28T06:06:42;98195.23;;;11.25;100.00
45872;BME280;32333;55.844;-3.210;2022-10-28T06:09:10;98205.44;;;11.97;100.00
45872;BME280;32333;55.844;-3.210;2022-10-28T06:11:37;98207.56;;;11.63;100.00
45872;BME280;32333;55.844;-3.210;2022-10-28T06:14:35;98215.80;;;11.50;100.00
45872;BME280;32333;55.844;-3.210;2022-10-28T06:17:03;98207.92;;;12.17;100.00
45872;BME280;32333;55.844;-3.210;2022-10-28T06:19:30;98197.42;;;12.49;100.00
45872;BME280;32333;55.844;-3.210;2022-10-28T06:21:58;98194.25;;;12.42;100.00
45872;BME280;32333;55.844;-3.210;2022-10-28T06:24:26;98193.82;;;12.63;100.00
45872;BME280;32333;55.844;-3.210;2022-10-28T06:26:53;98185.51;;;13.11;100.00
45872;BME280;32333;55.844;-3.210;2022-10-28T06:29:22;98179.87;;;13.18;100.00
45872;BME280;32333;55.844;-3.210;2022-10-28T06:31:49;98183.35;;;13.30;100.00
45872;BME280;32333;55.844;-3.210;2022-10-28T06:34:16;98169.77;;;13.76;100.00
45872;BME280;32333;55.844;-3.210;2022-10-28T06:36:43;98153.46;;;13.40;100.00
45872;BME280;32333;55.844;-3.210;2022-10-28T06:39:10;98139.45;;;13.07;100.00
45872;BME280;32333;55.844;-3.210;2022-10-28T06:41:37;98128.90;;;13.05;100.00
45872;BME280;32333;55.844;-3.210;2022-10-28T06:44:35;98122.07;;;13.00;100.00
45872;BME280;32333;55.844;-3.210;2022-10-28T06:47:03;98119.72;;;12.90;100.00
45872;BME280;32333;55.844;-3.210;2022-10-28T06:49:30;98135.39;;;11.84;100.00
45872;BME280;32333;55.844;-3.210;2022-10-28T06:51:59;98131.85;;;11.41;100.00
45872;BME280;32333;55.844;-3.210;2022-10-28T06:54:26;98112.24;;;11.58;100.00
45872;BME280;32333;55.844;-3.210;2022-10-28T06:56:53;98124.94;;;12.04;100.00
45872;BME280;32333;55.844;-3.210;2022-10-28T06:59:21;98119.75;;;11.51;100.00
45872;BME280;32333;55.844;-3.210;2022-10-28T07:01:48;98099.67;;;12.10;100.00
45872;BME280;32333;55.844;-3.210;2022-10-28T07:04:16;98103.40;;;11.54;100.00
45872;BME280;32333;55.844;-3.210;2022-10-28T07:06:43;98100.03;;;11.51;100.00
45872;BME280;32333;55.844;-3.210;2022-10-28T07:09:12;98099.15;;;11.94;100.00
45872;BME280;32333;55.844;-3.210;2022-10-28T07:11:40;98105.88;;;11.63;100.00
45872;BME280;32333;55.844;-3.210;2022-10-28T07:14:35;98112.21;;;12.17;100.00
45872;BME280;32333;55.844;-3.210;2022-10-28T07:17:03;98115.49;;;11.31;100.00
45872;BME280;32333;55.844;-3.210;2022-10-28T07:19:31;98109.23;;;12.21;100.00
45872;BME280;32333;55.844;-3.210;2022-10-28T07:21:59;98100.11;;;12.21;100.00
45872;BME280;32333;55.844;-3.210;2022-10-28T07:24:26;98088.21;;;12.01;100.00
45872;BME280;32333;55.844;-3.210;2022-10-28T07:26:53;98100.29;;;11.52;100.00
45872;BME280;32333;55.844;-3.210;2022-10-28T07:29:21;98094.04;;;11.81;100.00
45872;BME280;32333;55.844;-3.210;2022-10-28T07:31:52;98088.14;;;11.62;100.00
45872;BME280;32333;55.844;-3.210;2022-10-28T07:34:20;98091.94;;;11.33;100.00
45872;BME280;32333;55.844;-3.210;2022-10-28T07:36:48;98092.07;;;11.53;100.00
45872;BME280;32333;55.844;-3.210;2022-10-28T07:39:17;98101.83;;;11.42;100.00
45872;BME280;32333;55.844;-3.210;2022-10-28T07:41:46;98090.64;;;11.11;100.00
45872;BME280;32333;55.844;-3.210;2022-10-28T07:44:35;98103.26;;;11.37;100.00
45872;BME280;32333;55.844;-3.210;2022-10-28T07:47:04;98097.04;;;11.32;100.00
45872;BME280;32333;55.844;-3.210;2022-10-28T07:49:31;98085.99;;;11.58;100.00
45872;BME280;32333;55.844;-3.210;2022-10-28T07:51:59;98079.75;;;11.80;100.00
45872;BME280;32333;55.844;-3.210;2022-10-28T07:54:26;98072.06;;;11.92;100.00
45872;BME280;32333;55.844;-3.210;2022-10-28T07:56:54;98075.15;;;10.79;100.00
45872;BME280;32333;55.844;-3.210;2022-10-28T07:59:23;98078.13;;;11.42;100.00
45872;BME280;32333;55.844;-3.210;2022-10-28T08:01:50;98072.07;;;11.92;100.00
45872;BME280;32333;55.844;-3.210;2022-10-28T08:04:17;98063.92;;;11.42;100.00
45872;BME280;32333;55.844;-3.210;2022-10-28T08:06:46;98057.35;;;11.56;100.00
45872;BME280;32333;55.844;-3.210;2022-10-28T08:09:13;98048.74;;;11.31;100.00
45872;BME280;32333;55.844;-3.210;2022-10-28T08:11:42;98044.11;;;10.85;100.00
45872;BME280;32333;55.844;-3.210;2022-10-28T08:14:35;98049.40;;;10.98;100.00
45872;BME280;32333;55.844;-3.210;2022-10-28T08:17:02;98053.13;;;11.44;100.00
45872;BME280;32333;55.844;-3.210;2022-10-28T08:19:29;98042.66;;;11.57;100.00
45872;BME280;32333;55.844;-3.210;2022-10-28T08:21:58;98038.43;;;12.16;100.00
45872;BME280;32333;55.844;-3.210;2022-10-28T08:24:26;98047.59;;;11.58;100.00
45872;BME280;32333;55.844;-3.210;2022-10-28T08:26:53;98044.02;;;12.03;100.00
45872;BME280;32333;55.844;-3.210;2022-10-28T08:29:22;98047.67;;;11.30;100.00
45872;BME280;32333;55.844;-3.210;2022-10-28T08:31:49;98048.15;;;11.86;100.00
45872;BME280;32333;55.844;-3.210;2022-10-28T08:34:16;98055.53;;;11.68;100.00
45872;BME280;32333;55.844;-3.210;2022-10-28T08:36:44;98044.39;;;11.63;100.00
45872;BME280;32333;55.844;-3.210;2022-10-28T08:39:11;98059.51;;;12.28;100.00
45872;BME280;32333;55.844;-3.210;2022-10-28T08:41:43;98062.82;;;12.05;100.00
45872;BME280;32333;55.844;-3.210;2022-10-28T08:44:49;98062.46;;;12.65;100.00
45872;BME280;32333;55.844;-3.210;2022-10-28T08:47:32;98055.33;;;12.39;100.00
45872;BME280;32333;55.844;-3.210;2022-10-28T08:50:11;98056.23;;;12.91;100.00
45872;BME280;32333;55.844;-3.210;2022-10-28T08:52:44;98071.02;;;12.45;100.00
45872;BME280;32333;55.844;-3.210;2022-10-28T08:55:16;98068.22;;;11.98;100.00
45872;BME280;32333;55.844;-3.210;2022-10-28T08:57:49;98077.60;;;12.22;100.00
45872;BME280;32333;55.844;-3.210;2022-10-28T09:00:21;98077.99;;;12.74;100.00
45872;BME280;32333;55.844;-3.210;2022-10-28T09:03:00;98064.91;;;12.75;100.00
45872;BME280;32333;55.844;-3.210;2022-10-28T09:05:33;98091.40;;;13.13;100.00
45872;BME280;32333;55.844;-3.210;2022-10-28T09:08:03;98102.33;;;12.92;100.00
45872;BME280;32333;55.844;-3.210;2022-10-28T09:10:42;98106.49;;;12.82;100.00
45872;BME280;32333;55.844;-3.210;2022-10-28T09:14:47;98120.25;;;12.47;100.00
45872;BME280;32333;55.844;-3.210;2022-10-28T09:17:21;98135.11;;;11.92;100.00
45872;BME280;32333;55.844;-3.210;2022-10-28T09:19:58;98130.95;;;11.87;100.00
45872;BME280;32333;55.844;-3.210;2022-10-28T09:22:36;98139.35;;;11.77;100.00
45872;BME280;32333;55.844;-3.210;2022-10-28T09:25:12;98150.22;;;11.17;100.00
45872;BME280;32333;55.844;-3.210;2022-10-28T09:27:57;98161.41;;;10.88;100.00
45872;BME280;32333;55.844;-3.210;2022-10-28T09:30:33;98187.22;;;11.30;100.00
45872;BME280;32333;55.844;-3.210;2022-10-28T09:33:13;98197.96;;;10.55;100.00
45872;BME280;32333;55.844;-3.210;2022-10-28T09:35:44;98226.60;;;10.01;100.00
45872;BME280;32333;55.844;-3.210;2022-10-28T09:38:19;98230.66;;;9.84;100.00
45872;BME280;32333;55.844;-3.210;2022-10-28T09:40:53;98239.64;;;10.08;100.00
45872;BME280;32333;55.844;-3.210;2022-10-28T09:44:41;98260.66;;;9.59;100.00
45872;BME280;32333;55.844;-3.210;2022-10-28T09:47:15;98268.53;;;9.46;100.00
45872;BME280;32333;55.844;-3.210;2022-10-28T09:49:44;98278.69;;;9.30;100.00
45872;BME280;32333;55.844;-3.210;2022-10-28T09:52:18;98293.69;;;9.23;100.00
45872;BME280;32333;55.844;-3.210;2022-10-28T09:54:51;98298.94;;;9.24;100.00
45872;BME280;32333;55.844;-3.210;2022-10-28T09:57:28;98315.00;;;8.85;100.00
45872;BME280;32333;55.844;-3.210;2022-10-28T09:59:57;98322.12;;;8.93;100.00
45872;BME280;32333;55.844;-3.210;2022-10-28T10:02:27;98324.24;;;9.05;100.00
45872;BME280;32333;55.844;-3.210;2022-10-28T10:04:56;98337.06;;;9.52;100.00
45872;BME280;32333;55.844;-3.210;2022-10-28T10:07:31;98349.05;;;9.36;100.00
45872;BME280;32333;55.844;-3.210;2022-10-28T10:10:05;98362.59;;;9.23;100.00
45872;BME280;32333;55.844;-3.210;2022-10-28T10:14:39;98366.26;;;8.85;100.00
45872;BME280;32333;55.844;-3.210;2022-10-28T10:17:14;98389.03;;;8.19;100.00
45872;BME280;32333;55.844;-3.210;2022-10-28T10:19:59;98396.41;;;8.19;100.00
45872;BME280;32333;55.844;-3.210;2022-10-28T10:22:30;98407.94;;;8.57;100.00
45872;BME280;32333;55.844;-3.210;2022-10-28T10:24:58;98414.27;;;8.40;100.00
45872;BME280;32333;55.844;-3.210;2022-10-28T10:27:28;98443.73;;;8.46;100.00
45872;BME280;32333;55.844;-3.210;2022-10-28T10:29:57;98441.91;;;8.19;100.00
45872;BME280;32333;55.844;-3.210;2022-10-28T10:32:27;98449.47;;;8.05;100.00
45872;BME280;32333;55.844;-3.210;2022-10-28T10:35:02;98440.88;;;8.36;100.00
45872;BME280;32333;55.844;-3.210;2022-10-28T10:37:33;98459.62;;;9.05;100.00
45872;BME280;32333;55.844;-3.210;2022-10-28T10:40:22;98463.89;;;8.64;100.00
45872;BME280;32333;55.844;-3.210;2022-10-28T10:44:35;98465.03;;;10.31;100.00
45872;BME280;32333;55.844;-3.210;2022-10-28T10:47:19;98465.45;;;10.42;100.00
45872;BME280;32333;55.844;-3.210;2022-10-28T10:49:47;98470.58;;;10.81;100.00
45872;BME280;32333;55.844;-3.210;2022-10-28T10:52:18;98468.74;;;10.46;100.00
45872;BME280;32333;55.844;-3.210;2022-10-28T10:54:58;98465.70;;;10.79;100.00
45872;BME280;32333;55.844;-3.210;2022-10-28T10:57:28;98470.53;;;10.16;100.00
45872;BME280;32333;55.844;-3.210;2022-10-28T10:59:56;98463.65;;;10.35;100.00
45872;BME280;32333;55.844;-3.210;2022-10-28T11:02:29;98477.29;;;9.79;100.00
45872;BME280;32333;55.844;-3.210;2022-10-28T11:05:01;98480.51;;;10.12;100.00
45872;BME280;32333;55.844;-3.210;2022-10-28T11:07:31;98481.76;;;9.85;100.00
45872;BME280;32333;55.844;-3.210;2022-10-28T11:09:58;98493.58;;;10.03;100.00
45872;BME280;32333;55.844;-3.210;2022-10-28T11:14:35;98495.19;;;11.42;100.00
45872;BME280;32333;55.844;-3.210;2022-10-28T11:17:08;98491.53;;;9.87;100.00
45872;BME280;32333;55.844;-3.210;2022-10-28T11:19:53;98499.99;;;9.72;100.00
45872;BME280;32333;55.844;-3.210;2022-10-28T11:22:30;98503.24;;;9.65;100.00
45872;BME280;32333;55.844;-3.210;2022-10-28T11:25:35;98512.93;;;9.66;100.00
45872;BME280;32333;55.844;-3.210;2022-10-28T11:28:19;98506.67;;;9.54;100.00
45872;BME280;32333;55.844;-3.210;2022-10-28T11:30:55;98532.61;;;9.54;100.00
45872;BME280;32333;55.844;-3.210;2022-10-28T11:33:35;98522.09;;;9.29;100.00
45872;BME280;32333;55.844;-3.210;2022-10-28T11:36:14;98521.24;;;10.02;100.00
45872;BME280;32333;55.844;-3.210;2022-10-28T11:38:55;98521.34;;;9.78;100.00
45872;BME280;32333;55.844;-3.210;2022-10-28T11:41:34;98533.00;;;10.35;100.00
45872;BME280;32333;55.844;-3.210;2022-10-28T11:44:43;98526.60;;;9.95;100.00
45872;BME280;32333;55.844;-3.210;2022-10-28T11:47:27;98533.32;;;9.72;100.00
45872;BME280;32333;55.844;-3.210;2022-10-28T11:50:08;98527.21;;;9.50;100.00
45872;BME280;32333;55.844;-3.210;2022-10-28T11:52:51;98539.38;;;9.83;100.00
45872;BME280;32333;55.844;-3.210;2022-10-28T11:55:32;98556.71;;;9.75;100.00
45872;BME280;32333;55.844;-3.210;2022-10-28T11:58:08;98553.67;;;10.42;100.00
45872;BME280;32333;55.844;-3.210;2022-10-28T12:00:45;98559.97;;;9.69;100.00
45872;BME280;32333;55.844;-3.210;2022-10-28T12:04:06;98567.80;;;10.44;100.00
45872;BME280;32333;55.844;-3.210;2022-10-28T12:06:52;98577.95;;;9.77;100.00
45872;BME280;32333;55.844;-3.210;2022-10-28T12:09:29;98580.28;;;9.33;100.00
45872;BME280;32333;55.844;-3.210;2022-10-28T12:14:42;98599.49;;;9.34;100.00
45872;BME280;32333;55.844;-3.210;2022-10-28T12:17:15;98603.67;;;9.21;100.00
45872;BME280;32333;55.844;-3.210;2022-10-28T12:19:50;98606.44;;;8.71;100.00
45872;BME280;32333;55.844;-3.210;2022-10-28T12:22:24;98618.94;;;9.06;100.00
45872;BME280;32333;55.844;-3.210;2022-10-28T12:24:54;98620.81;;;9.60;100.00
45872;BME280;32333;55.844;-3.210;2022-10-28T12:27:28;98618.44;;;9.33;100.00
45872;BME280;32333;55.844;-3.210;2022-10-28T12:30:00;98624.89;;;9.92;100.00
45872;BME280;32333;55.844;-3.210;2022-10-28T12:32:32;98626.93;;;10.09;100.00
45872;BME280;32333;55.844;-3.210;2022-10-28T12:35:05;98625.27;;;9.94;100.00
45872;BME280;32333;55.844;-3.210;2022-10-28T12:37:40;98632.71;;;10.12;100.00
45872;BME280;32333;55.844;-3.210;2022-10-28T12:40:15;98632.53;;;10.32;100.00
45872;BME280;32333;55.844;-3.210;2022-10-28T12:44:37;98636.11;;;10.02;100.00
45872;BME280;32333;55.844;-3.210;2022-10-28T12:47:15;98634.64;;;10.62;100.00
45872;BME280;32333;55.844;-3.210;2022-10-28T12:49:53;98650.15;;;9.97;100.00
45872;BME280;32333;55.844;-3.210;2022-10-28T12:52:32;98645.43;;;10.04;100.00
45872;BME280;32333;55.844;-3.210;2022-10-28T12:55:13;98643.43;;;10.02;100.00
45872;BME280;32333;55.844;-3.210;2022-10-28T12:57:44;98643.45;;;10.22;100.00
45872;BME280;32333;55.844;-3.210;2022-10-28T13:00:17;98648.18;;;9.96;100.00
45872;BME280;32333;55.844;-3.210;2022-10-28T13:02:49;98656.01;;;10.10;100.00
45872;BME280;32333;55.844;-3.210;2022-10-28T13:05:24;98661.84;;;10.31;100.00
45872;BME280;32333;55.844;-3.210;2022-10-28T13:08:08;98668.77;;;9.78;100.00
45872;BME280;32333;55.844;-3.210;2022-10-28T13:10:45;98670.12;;;10.70;100.00
45872;BME280;32333;55.844;-3.210;2022-10-28T13:14:56;98663.16;;;9.93;100.00
45872;BME280;32333;55.844;-3.210;2022-10-28T13:17:38;98666.87;;;10.73;100.00
45872;BME280;32333;55.844;-3.210;2022-10-28T13:20:18;98663.10;;;11.14;100.00
45872;BME280;32333;55.844;-3.210;2022-10-28T13:22:58;98666.96;;;10.57;100.00
45872;BME280;32333;55.844;-3.210;2022-10-28T13:25:42;98671.18;;;10.39;100.00
45872;BME280;32333;55.844;-3.210;2022-10-28T13:28:16;98672.44;;;9.59;100.00
45872;BME280;32333;55.844;-3.210;2022-10-28T13:30:53;98684.15;;;9.60;100.00
45872;BME280;32333;55.844;-3.210;2022-10-28T13:33:24;98679.78;;;9.97;100.00
45872;BME280;32333;55.844;-3.210;2022-10-28T13:35:52;98694.41;;;10.17;100.00